createdAt,value
2019-05-13T00:01:07.059Z,0.00
2019-05-13T00:02:05.245Z,0.00
2019-05-13T00:03:59.807Z,0.00
2019-05-13T00:05:00.234Z,0.00
2019-05-13T00:06:57.629Z,0.00
2019-05-13T00:07:55.212Z,0.00
2019-05-13T00:08:55.655Z,0.00
2019-05-13T00:09:56.067Z,0.00
2019-05-13T00:10:56.519Z,0.00
2019-05-13T00:11:56.920Z,0.00
2019-05-13T00:12:57.350Z,0.00
2019-05-13T00:13:57.779Z,0.00
2019-05-13T00:14:58.214Z,0.00
2019-05-13T00:15:58.637Z,0.00
2019-05-13T00:16:59.060Z,0.00
2019-05-13T00:17:59.495Z,0.00
2019-05-13T00:18:59.922Z,0.00
2019-05-13T00:20:00.345Z,0.00
2019-05-13T00:21:00.765Z,0.00
2019-05-13T00:22:03.558Z,0.00
2019-05-13T00:23:03.788Z,0.00
2019-05-13T00:24:04.051Z,0.00
2019-05-13T00:25:03.987Z,0.00
2019-05-13T00:26:03.814Z,0.00
2019-05-13T00:27:03.930Z,0.00
2019-05-13T00:28:04.314Z,0.00
2019-05-13T00:29:04.358Z,0.00
2019-05-13T00:30:04.607Z,0.00
2019-05-13T00:31:05.030Z,0.00
2019-05-13T00:32:05.448Z,0.00
2019-05-13T00:33:05.873Z,0.00
2019-05-13T00:34:06.301Z,0.00
2019-05-13T00:35:06.726Z,0.00
2019-05-13T00:36:07.152Z,0.00
2019-05-13T00:37:11.489Z,0.00
2019-05-13T00:38:08.009Z,0.00
2019-05-13T00:39:08.441Z,0.00
2019-05-13T00:40:08.881Z,0.00
2019-05-13T00:41:09.292Z,0.00
2019-05-13T00:42:09.712Z,0.00
2019-05-13T00:43:10.136Z,0.00
2019-05-13T00:44:10.564Z,0.00
2019-05-13T00:45:11.024Z,0.00
2019-05-13T00:46:11.419Z,0.00
2019-05-13T00:47:13.269Z,0.00
2019-05-13T00:48:14.306Z,0.00
2019-05-13T00:49:13.421Z,0.00
2019-05-13T00:50:14.318Z,0.00
2019-05-13T00:51:14.087Z,0.00
2019-05-13T00:52:14.376Z,0.00
2019-05-13T00:53:14.407Z,0.00
2019-05-13T00:54:14.833Z,0.00
2019-05-13T00:55:15.272Z,0.00
2019-05-13T00:56:15.689Z,0.00
2019-05-13T00:57:16.135Z,0.00
2019-05-13T00:58:16.542Z,0.00
2019-05-13T00:59:16.967Z,0.00
2019-05-13T01:00:17.399Z,0.00
2019-05-13T01:01:17.819Z,0.00
2019-05-13T01:02:18.302Z,0.00
2019-05-13T01:03:18.675Z,0.00
2019-05-13T01:04:19.106Z,0.00
2019-05-13T01:05:19.530Z,0.00
2019-05-13T01:06:19.951Z,0.00
2019-05-13T01:07:25.986Z,0.00
2019-05-13T01:08:20.798Z,0.00
2019-05-13T01:09:23.561Z,0.00
2019-05-13T01:10:23.672Z,0.00
2019-05-13T01:11:23.618Z,0.00
2019-05-13T01:12:23.784Z,0.00
2019-05-13T01:13:23.771Z,0.00
2019-05-13T01:14:23.567Z,0.00
2019-05-13T01:15:24.685Z,0.00
2019-05-13T01:16:24.210Z,0.00
2019-05-13T01:17:24.629Z,0.00
2019-05-13T01:18:25.062Z,0.00
2019-05-13T01:19:25.492Z,0.00
2019-05-13T01:20:25.935Z,0.00
2019-05-13T01:21:26.368Z,0.00
2019-05-13T01:22:26.780Z,0.00
2019-05-13T01:23:27.189Z,0.00
2019-05-13T01:24:27.635Z,0.00
2019-05-13T01:25:28.046Z,0.00
2019-05-13T01:26:28.464Z,0.00
2019-05-13T01:27:28.897Z,0.00
2019-05-13T01:28:29.352Z,0.00
2019-05-13T01:29:29.752Z,0.00
2019-05-13T01:30:30.168Z,0.00
2019-05-13T01:31:30.596Z,0.00
2019-05-13T01:32:31.087Z,0.00
2019-05-13T01:33:31.450Z,0.00
2019-05-13T01:34:33.965Z,0.00
2019-05-13T01:35:34.244Z,0.00
2019-05-13T01:36:34.048Z,0.00
2019-05-13T01:37:42.103Z,0.00
2019-05-13T01:38:34.074Z,0.00
2019-05-13T01:39:34.900Z,0.00
2019-05-13T01:40:34.931Z,0.00
2019-05-13T01:41:34.850Z,0.00
2019-05-13T01:42:35.299Z,0.00
2019-05-13T01:43:35.710Z,0.00
2019-05-13T01:44:36.135Z,0.00
2019-05-13T01:45:36.562Z,0.00
2019-05-13T01:46:36.978Z,0.00
2019-05-13T01:47:37.421Z,0.00
2019-05-13T01:48:37.855Z,0.00
2019-05-13T01:49:38.284Z,0.00
2019-05-13T01:50:38.705Z,0.00
2019-05-13T01:51:39.125Z,0.00
2019-05-13T01:52:39.547Z,0.00
2019-05-13T01:53:39.984Z,0.00
2019-05-13T01:54:40.398Z,0.00
2019-05-13T01:55:40.824Z,0.00
2019-05-13T01:56:41.255Z,0.00
2019-05-13T01:57:44.049Z,0.00
2019-05-13T01:58:42.087Z,0.00
2019-05-13T01:59:43.528Z,0.00
2019-05-13T02:00:44.329Z,0.00
2019-05-13T02:01:44.194Z,0.00
2019-05-13T02:02:44.579Z,0.00
2019-05-13T02:03:44.428Z,0.00
2019-05-13T02:04:44.641Z,0.00
2019-05-13T02:05:45.083Z,0.00
2019-05-13T02:06:45.514Z,0.00
2019-05-13T02:07:57.062Z,0.00
2019-05-13T02:08:46.343Z,0.00
2019-05-13T02:09:46.765Z,0.00
2019-05-13T02:10:47.225Z,0.00
2019-05-13T02:11:47.622Z,0.00
2019-05-13T02:12:48.040Z,0.00
2019-05-13T02:13:48.477Z,0.00
2019-05-13T02:14:48.892Z,0.00
2019-05-13T02:15:49.323Z,0.00
2019-05-13T02:16:49.744Z,0.00
2019-05-13T02:17:50.207Z,0.00
2019-05-13T02:18:50.592Z,0.00
2019-05-13T02:19:51.026Z,0.00
2019-05-13T02:20:51.448Z,0.00
2019-05-13T02:21:54.159Z,0.00
2019-05-13T02:22:53.626Z,0.00
2019-05-13T02:23:53.701Z,0.00
2019-05-13T02:24:53.559Z,0.00
2019-05-13T02:25:54.170Z,0.00
2019-05-13T02:26:54.424Z,0.00
2019-05-13T02:27:54.417Z,0.00
2019-05-13T02:28:54.851Z,0.00
2019-05-13T02:29:55.270Z,0.00
2019-05-13T02:30:56.877Z,0.00
2019-05-13T02:31:56.531Z,0.00
2019-05-13T02:32:56.539Z,0.00
2019-05-13T02:33:56.978Z,0.00
2019-05-13T02:34:57.398Z,0.00
2019-05-13T02:35:57.829Z,0.00
2019-05-13T02:36:58.247Z,0.00
2019-05-13T02:38:14.639Z,0.00
2019-05-13T02:39:02.245Z,0.00
2019-05-13T02:40:03.211Z,0.00
2019-05-13T02:41:02.591Z,0.00
2019-05-13T02:42:03.480Z,0.00
2019-05-13T02:43:02.937Z,0.00
2019-05-13T02:44:03.597Z,0.00
2019-05-13T02:45:03.797Z,0.00
2019-05-13T02:46:04.228Z,0.00
2019-05-13T02:47:03.638Z,0.00
2019-05-13T02:48:03.587Z,0.00
2019-05-13T02:49:03.555Z,0.00
2019-05-13T02:50:05.053Z,0.00
2019-05-13T02:51:04.270Z,0.00
2019-05-13T02:52:04.615Z,0.00
2019-05-13T02:53:05.135Z,0.00
2019-05-13T02:54:05.483Z,0.00
2019-05-13T02:55:05.906Z,0.00
2019-05-13T02:56:06.313Z,0.00
2019-05-13T02:57:06.743Z,0.00
2019-05-13T02:58:07.163Z,0.00
2019-05-13T02:59:07.598Z,0.00
2019-05-13T03:00:08.019Z,0.00
2019-05-13T03:01:08.445Z,0.00
2019-05-13T03:02:11.996Z,0.00
2019-05-13T03:03:12.632Z,0.00
2019-05-13T03:04:12.868Z,0.00
2019-05-13T03:05:13.180Z,0.00
2019-05-13T03:06:13.243Z,0.00
2019-05-13T03:07:12.021Z,0.00
2019-05-13T03:08:12.655Z,0.00
2019-05-13T03:09:12.668Z,0.00
2019-05-13T03:10:13.493Z,0.00
2019-05-13T03:11:12.840Z,5.63
2019-05-13T03:12:13.412Z,5.63
2019-05-13T03:13:13.537Z,5.63
2019-05-13T03:14:13.957Z,5.63
2019-05-13T03:15:14.391Z,5.63
2019-05-13T03:16:14.810Z,5.63
2019-05-13T03:17:15.231Z,5.63
2019-05-13T03:18:15.665Z,5.63
2019-05-13T03:19:16.091Z,5.63
2019-05-13T03:20:16.967Z,5.63
2019-05-13T03:21:16.978Z,11.25
2019-05-13T03:22:17.368Z,11.25
2019-05-13T03:23:17.784Z,11.25
2019-05-13T03:24:18.206Z,11.25
2019-05-13T03:25:22.242Z,11.25
2019-05-13T03:26:19.056Z,11.25
2019-05-13T03:27:21.670Z,16.88
2019-05-13T03:28:22.358Z,16.88
2019-05-13T03:29:22.177Z,16.88
2019-05-13T03:30:25.339Z,16.88
2019-05-13T03:31:25.631Z,16.88
2019-05-13T03:32:27.207Z,16.88
2019-05-13T03:33:27.722Z,22.50
2019-05-13T03:34:26.609Z,22.50
2019-05-13T03:35:26.953Z,22.50
2019-05-13T03:36:25.909Z,22.50
2019-05-13T03:37:26.214Z,22.50
2019-05-13T03:38:24.154Z,28.13
2019-05-13T03:39:24.592Z,28.13
2019-05-13T03:40:25.004Z,28.13
2019-05-13T03:41:25.446Z,28.13
2019-05-13T03:42:25.863Z,28.13
2019-05-13T03:43:26.280Z,28.13
2019-05-13T03:44:26.711Z,33.75
2019-05-13T03:45:27.131Z,33.75
2019-05-13T03:46:27.558Z,33.75
2019-05-13T03:47:27.974Z,33.75
2019-05-13T03:48:28.401Z,33.75
2019-05-13T03:49:28.831Z,39.38
2019-05-13T03:50:33.524Z,39.38
2019-05-13T03:51:32.569Z,39.38
2019-05-13T03:52:33.224Z,39.38
2019-05-13T03:53:32.562Z,39.38
2019-05-13T03:54:32.786Z,45.00
2019-05-13T03:55:32.805Z,45.00
2019-05-13T03:56:32.779Z,45.00
2019-05-13T03:57:33.761Z,45.00
2019-05-13T03:58:32.667Z,45.00
2019-05-13T03:59:33.570Z,45.00
2019-05-13T04:00:33.517Z,50.63
2019-05-13T04:01:33.937Z,50.63
2019-05-13T04:02:34.345Z,50.63
2019-05-13T04:03:34.778Z,50.63
2019-05-13T04:04:35.203Z,50.63
2019-05-13T04:05:35.633Z,56.25
2019-05-13T04:06:36.048Z,56.25
2019-05-13T04:07:36.481Z,56.25
2019-05-13T04:08:36.901Z,56.25
2019-05-13T04:09:37.329Z,56.25
2019-05-13T04:10:37.750Z,56.25
2019-05-13T04:11:38.172Z,61.88
2019-05-13T04:12:38.593Z,61.88
2019-05-13T04:13:42.562Z,61.88
2019-05-13T04:14:42.137Z,61.88
2019-05-13T04:15:42.816Z,61.88
2019-05-13T04:16:42.842Z,67.50
2019-05-13T04:17:42.827Z,67.50
2019-05-13T04:18:42.620Z,67.50
2019-05-13T04:19:42.386Z,67.50
2019-05-13T04:20:42.546Z,67.50
2019-05-13T04:21:43.161Z,67.50
2019-05-13T04:22:42.861Z,73.13
2019-05-13T04:23:43.425Z,73.13
2019-05-13T04:24:43.694Z,73.13
2019-05-13T04:25:44.857Z,73.13
2019-05-13T04:26:44.547Z,73.13
2019-05-13T04:27:44.975Z,73.13
2019-05-13T04:28:45.397Z,78.75
2019-05-13T04:29:45.825Z,78.75
2019-05-13T04:30:46.249Z,78.75
2019-05-13T04:31:46.671Z,78.75
2019-05-13T04:32:47.101Z,78.75
2019-05-13T04:33:47.570Z,84.38
2019-05-13T04:34:47.956Z,84.38
2019-05-13T04:35:48.370Z,84.38
2019-05-13T04:36:51.891Z,84.38
2019-05-13T04:37:52.189Z,84.38
2019-05-13T04:38:51.985Z,84.38
2019-05-13T04:39:54.869Z,90.00
2019-05-13T04:40:52.906Z,90.00
2019-05-13T04:41:52.914Z,90.00
2019-05-13T04:42:53.491Z,90.00
2019-05-13T04:43:53.945Z,90.00
2019-05-13T04:44:53.196Z,95.63
2019-05-13T04:45:52.733Z,95.63
2019-05-13T04:46:53.044Z,95.63
2019-05-13T04:47:53.466Z,95.63
2019-05-13T04:48:53.900Z,95.63
2019-05-13T04:49:54.320Z,95.63
2019-05-13T04:50:54.754Z,101.25
2019-05-13T04:51:55.169Z,101.25
2019-05-13T04:52:55.592Z,101.25
2019-05-13T04:53:57.463Z,101.25
2019-05-13T04:54:56.484Z,106.88
2019-05-13T04:55:56.876Z,106.88
2019-05-13T04:56:57.296Z,106.88
2019-05-13T04:57:57.724Z,106.88
2019-05-13T04:58:58.141Z,106.88
2019-05-13T04:59:58.570Z,112.50
2019-05-13T05:01:07.541Z,112.50
2019-05-13T05:02:04.428Z,112.50
2019-05-13T05:03:03.113Z,112.50
2019-05-13T05:04:03.113Z,112.50
2019-05-13T05:05:03.292Z,118.13
2019-05-13T05:06:03.305Z,118.13
2019-05-13T05:07:03.101Z,118.13
2019-05-13T05:08:03.136Z,118.13
2019-05-13T05:09:03.329Z,118.13
2019-05-13T05:10:17.425Z,123.75
2019-05-13T05:11:03.240Z,123.75
2019-05-13T05:12:03.677Z,123.75
2019-05-13T05:13:04.097Z,123.75
2019-05-13T05:14:04.523Z,129.38
2019-05-13T05:15:04.946Z,129.38
2019-05-13T05:16:05.373Z,129.38
2019-05-13T05:17:05.801Z,129.38
2019-05-13T05:18:06.221Z,129.38
2019-05-13T05:19:06.650Z,135.00
2019-05-13T05:20:07.077Z,135.00
2019-05-13T05:21:07.495Z,135.00
2019-05-13T05:22:07.933Z,135.00
2019-05-13T05:23:08.356Z,140.63
2019-05-13T05:24:11.259Z,140.63
2019-05-13T05:25:11.541Z,140.63
2019-05-13T05:26:11.686Z,140.63
2019-05-13T05:27:12.034Z,146.25
2019-05-13T05:28:11.175Z,146.25
2019-05-13T05:29:11.386Z,146.25
2019-05-13T05:30:11.489Z,146.25
2019-05-13T05:31:11.756Z,151.88
2019-05-13T05:32:12.416Z,151.88
2019-05-13T05:33:12.604Z,151.88
2019-05-13T05:34:13.032Z,151.88
2019-05-13T05:35:13.457Z,151.88
2019-05-13T05:36:13.883Z,151.88
2019-05-13T05:37:14.313Z,151.88
2019-05-13T05:38:14.742Z,157.50
2019-05-13T05:39:15.163Z,157.50
2019-05-13T05:40:28.070Z,163.13
2019-05-13T05:41:16.011Z,163.13
2019-05-13T05:42:16.443Z,163.13
2019-05-13T05:43:16.868Z,163.13
2019-05-13T05:44:17.291Z,168.75
2019-05-13T05:45:17.723Z,168.75
2019-05-13T05:46:18.140Z,168.75
2019-05-13T05:47:18.571Z,174.38
2019-05-13T05:48:18.995Z,174.38
2019-05-13T05:49:21.320Z,180.00
2019-05-13T05:50:19.845Z,180.00
2019-05-13T05:51:22.111Z,180.00
2019-05-13T05:52:21.383Z,185.63
2019-05-13T05:53:21.861Z,185.63
2019-05-13T05:54:21.968Z,191.25
2019-05-13T05:55:21.973Z,191.25
2019-05-13T05:56:22.399Z,196.88
2019-05-13T05:57:22.830Z,196.88
2019-05-13T05:58:23.393Z,196.88
2019-05-13T05:59:23.701Z,202.50
2019-05-13T06:00:24.106Z,208.13
2019-05-13T06:01:24.534Z,208.13
2019-05-13T06:02:24.972Z,213.75
2019-05-13T06:03:25.385Z,213.75
2019-05-13T06:04:25.826Z,219.38
2019-05-13T06:05:26.244Z,219.38
2019-05-13T06:06:26.669Z,225.00
2019-05-13T06:07:27.092Z,230.63
2019-05-13T06:08:27.519Z,236.25
2019-05-13T06:09:27.952Z,241.88
2019-05-13T06:10:42.634Z,253.13
2019-05-13T06:11:31.105Z,258.75
2019-05-13T06:12:31.396Z,270.00
2019-05-13T06:13:31.571Z,275.63
2019-05-13T06:14:32.386Z,286.88
2019-05-13T06:15:31.498Z,298.13
2019-05-13T06:16:32.058Z,309.38
2019-05-13T06:17:31.948Z,320.63
2019-05-13T06:18:32.613Z,331.88
2019-05-13T06:19:32.286Z,343.13
2019-05-13T06:20:32.647Z,360.00
2019-05-13T06:21:33.136Z,365.63
2019-05-13T06:22:33.509Z,376.88
2019-05-13T06:23:33.929Z,388.13
2019-05-13T06:24:34.355Z,455.63
2019-05-13T06:25:34.787Z,630.00
2019-05-13T06:26:35.218Z,781.88
2019-05-13T06:27:35.641Z,832.50
2019-05-13T06:28:36.074Z,843.75
2019-05-13T06:29:36.499Z,860.63
2019-05-13T06:30:36.940Z,888.75
2019-05-13T06:31:37.361Z,894.38
2019-05-13T06:32:37.796Z,916.88
2019-05-13T06:33:38.234Z,950.63
2019-05-13T06:34:38.658Z,1018.13
2019-05-13T06:35:42.574Z,1215.00
2019-05-13T06:36:41.654Z,1687.50
2019-05-13T06:37:41.479Z,2103.75
2019-05-13T06:38:42.453Z,900.00
2019-05-13T06:39:42.006Z,810.00
2019-05-13T06:40:42.443Z,1710.00
2019-05-13T06:41:41.863Z,2610.00
2019-05-13T06:42:42.136Z,2790.00
2019-05-13T06:43:42.566Z,2970.00
2019-05-13T06:44:43.011Z,2761.88
2019-05-13T06:45:43.454Z,2458.13
2019-05-13T06:46:43.905Z,2475.00
2019-05-13T06:47:44.334Z,2593.13
2019-05-13T06:48:44.779Z,2553.75
2019-05-13T06:49:45.216Z,2379.38
2019-05-13T06:50:45.652Z,2255.63
2019-05-13T06:51:46.092Z,2227.50
2019-05-13T06:52:46.550Z,2340.00
2019-05-13T06:53:46.974Z,2576.25
2019-05-13T06:54:47.417Z,2778.75
2019-05-13T06:55:47.863Z,2941.88
2019-05-13T06:56:48.302Z,2981.25
2019-05-13T06:57:48.755Z,2801.25
2019-05-13T06:58:51.812Z,2716.88
2019-05-13T06:59:51.649Z,2745.00
2019-05-13T07:00:51.607Z,2846.25
2019-05-13T07:01:51.352Z,2773.13
2019-05-13T07:02:51.766Z,2559.38
2019-05-13T07:03:51.892Z,2385.00
2019-05-13T07:04:51.898Z,2300.63
2019-05-13T07:05:52.627Z,2210.63
2019-05-13T07:07:08.494Z,2165.63
2019-05-13T07:07:53.205Z,2289.38
2019-05-13T07:08:53.648Z,2508.75
2019-05-13T07:09:54.095Z,2570.63
2019-05-13T07:10:54.544Z,2486.25
2019-05-13T07:11:56.934Z,2430.00
2019-05-13T07:12:55.438Z,2446.88
2019-05-13T07:13:55.886Z,2531.25
2019-05-13T07:14:56.338Z,2581.88
2019-05-13T07:15:56.792Z,2531.25
2019-05-13T07:16:57.232Z,2334.38
2019-05-13T07:17:57.683Z,2143.13
2019-05-13T07:18:58.167Z,2165.63
2019-05-13T07:19:58.584Z,2385.00
2019-05-13T07:21:01.973Z,2756.25
2019-05-13T07:22:02.348Z,2953.13
2019-05-13T07:23:01.601Z,2936.25
2019-05-13T07:24:02.338Z,2851.88
2019-05-13T07:25:02.564Z,2835.00
2019-05-13T07:26:01.828Z,2745.00
2019-05-13T07:27:02.211Z,2576.25
2019-05-13T07:28:02.378Z,2362.50
2019-05-13T07:29:03.867Z,2233.13
2019-05-13T07:30:03.098Z,2210.63
2019-05-13T07:31:03.544Z,2165.63
2019-05-13T07:32:03.997Z,2188.13
2019-05-13T07:33:04.452Z,2340.00
2019-05-13T07:34:04.912Z,2559.38
2019-05-13T07:35:05.366Z,2829.38
2019-05-13T07:36:05.825Z,2981.25
2019-05-13T07:37:06.266Z,3043.13
2019-05-13T07:38:06.713Z,3088.13
2019-05-13T07:39:07.169Z,3082.50
2019-05-13T07:40:07.620Z,2998.13
2019-05-13T07:41:08.075Z,2896.88
2019-05-13T07:42:08.523Z,2784.38
2019-05-13T07:43:08.987Z,2677.50
2019-05-13T07:44:11.680Z,2632.50
2019-05-13T07:45:12.197Z,2677.50
2019-05-13T07:46:12.633Z,2806.88
2019-05-13T07:47:11.628Z,2958.75
2019-05-13T07:48:20.777Z,2964.38
2019-05-13T07:49:12.044Z,3105.00
2019-05-13T07:50:12.812Z,3279.38
2019-05-13T07:51:12.621Z,3240.00
2019-05-13T07:52:13.079Z,3200.63
2019-05-13T07:53:18.744Z,2328.75
2019-05-13T07:54:13.990Z,1906.88
2019-05-13T07:55:14.447Z,528.75
2019-05-13T07:56:14.902Z,315.00
2019-05-13T07:57:15.363Z,264.38
2019-05-13T07:58:15.971Z,264.38
2019-05-13T07:59:16.258Z,343.13
2019-05-13T08:00:16.720Z,2475.00
2019-05-13T08:01:17.170Z,2626.88
2019-05-13T08:02:17.622Z,2795.63
2019-05-13T08:03:18.071Z,2986.88
2019-05-13T08:04:22.842Z,3133.13
2019-05-13T08:05:18.974Z,3301.88
2019-05-13T08:06:21.872Z,3380.63
2019-05-13T08:07:22.451Z,2891.25
2019-05-13T08:08:22.024Z,3268.13
2019-05-13T08:09:21.604Z,1243.13
2019-05-13T08:10:21.926Z,534.38
2019-05-13T08:11:22.413Z,613.13
2019-05-13T08:12:22.127Z,3375.00
2019-05-13T08:13:22.735Z,3296.25
2019-05-13T08:14:23.032Z,798.75
2019-05-13T08:15:23.486Z,472.50
2019-05-13T08:16:23.935Z,450.00
2019-05-13T08:17:24.385Z,793.13
2019-05-13T08:18:24.836Z,483.75
2019-05-13T08:19:25.282Z,652.50
2019-05-13T08:20:25.739Z,1760.63
2019-05-13T08:21:26.183Z,1530.00
2019-05-13T08:22:26.623Z,2666.25
2019-05-13T08:23:27.077Z,2711.25
2019-05-13T08:24:27.528Z,2857.50
2019-05-13T08:25:27.966Z,3015.00
2019-05-13T08:26:28.421Z,2891.25
2019-05-13T08:27:31.377Z,579.38
2019-05-13T08:28:32.045Z,410.63
2019-05-13T08:29:32.391Z,405.00
2019-05-13T08:30:31.825Z,405.00
2019-05-13T08:31:32.277Z,2880.00
2019-05-13T08:32:31.507Z,2773.13
2019-05-13T08:33:32.238Z,2705.63
2019-05-13T08:34:32.888Z,2733.75
2019-05-13T08:35:32.467Z,2896.88
2019-05-13T08:36:32.921Z,3048.75
2019-05-13T08:37:33.370Z,3223.13
2019-05-13T08:38:33.820Z,3346.88
2019-05-13T08:39:38.363Z,3403.13
2019-05-13T08:40:34.732Z,3465.00
2019-05-13T08:41:35.191Z,3414.38
2019-05-13T08:42:35.633Z,3459.38
2019-05-13T08:43:36.091Z,3543.75
2019-05-13T08:44:36.546Z,3583.13
2019-05-13T08:45:37.006Z,3633.75
2019-05-13T08:46:37.461Z,3521.25
2019-05-13T08:47:37.921Z,3459.38
2019-05-13T08:48:38.376Z,506.25
2019-05-13T08:49:41.298Z,461.25
2019-05-13T08:50:41.788Z,511.88
2019-05-13T08:51:42.130Z,590.63
2019-05-13T08:52:42.305Z,838.13
2019-05-13T08:53:42.491Z,590.63
2019-05-13T08:54:41.858Z,1040.63
2019-05-13T08:55:42.490Z,1406.25
2019-05-13T08:56:42.027Z,1355.63
2019-05-13T08:57:42.486Z,1147.50
2019-05-13T08:58:42.942Z,1389.38
2019-05-13T08:59:43.400Z,821.25
2019-05-13T09:00:43.892Z,1378.13
2019-05-13T09:01:44.298Z,1276.88
2019-05-13T09:02:44.752Z,731.25
2019-05-13T09:03:45.208Z,680.63
2019-05-13T09:04:45.657Z,720.00
2019-05-13T09:05:46.117Z,1113.75
2019-05-13T09:06:46.571Z,798.75
2019-05-13T09:07:47.022Z,596.25
2019-05-13T09:08:47.473Z,585.00
2019-05-13T09:09:47.930Z,573.75
2019-05-13T09:10:48.372Z,596.25
2019-05-13T09:11:51.423Z,652.50
2019-05-13T09:12:49.282Z,742.50
2019-05-13T09:13:51.606Z,646.88
2019-05-13T09:14:52.417Z,478.13
2019-05-13T09:15:51.659Z,455.63
2019-05-13T09:16:52.610Z,461.25
2019-05-13T09:17:51.760Z,461.25
2019-05-13T09:18:52.208Z,461.25
2019-05-13T09:19:52.414Z,450.00
2019-05-13T09:20:52.859Z,433.13
2019-05-13T09:21:53.375Z,427.50
2019-05-13T09:22:53.751Z,427.50
2019-05-13T09:23:54.184Z,427.50
2019-05-13T09:24:54.631Z,393.75
2019-05-13T09:25:55.069Z,348.75
2019-05-13T09:26:55.507Z,320.63
2019-05-13T09:27:55.953Z,309.38
2019-05-13T09:28:56.395Z,281.25
2019-05-13T09:29:56.825Z,253.13
2019-05-13T09:30:57.275Z,236.25
2019-05-13T09:31:57.708Z,219.38
2019-05-13T09:32:58.146Z,208.13
2019-05-13T09:34:01.284Z,202.50
2019-05-13T09:34:59.022Z,208.13
2019-05-13T09:36:02.018Z,241.88
2019-05-13T09:37:02.510Z,275.63
2019-05-13T09:38:03.179Z,360.00
2019-05-13T09:39:02.035Z,500.63
2019-05-13T09:40:02.387Z,731.25
2019-05-13T09:41:01.999Z,680.63
2019-05-13T09:42:02.984Z,731.25
2019-05-13T09:43:02.698Z,641.25
2019-05-13T09:44:02.959Z,618.75
2019-05-13T09:45:03.395Z,601.88
2019-05-13T09:46:03.833Z,551.25
2019-05-13T09:47:04.263Z,478.13
2019-05-13T09:48:04.710Z,433.13
2019-05-13T09:50:05.573Z,410.63
2019-05-13T09:51:06.019Z,371.25
2019-05-13T09:52:06.448Z,337.50
2019-05-13T09:53:06.890Z,286.88
2019-05-13T09:54:07.328Z,253.13
2019-05-13T09:55:22.788Z,225.00
2019-05-13T09:56:08.203Z,225.00
2019-05-13T09:57:08.637Z,225.00
2019-05-13T09:58:11.682Z,230.63
2019-05-13T09:59:11.741Z,241.88
2019-05-13T10:00:12.218Z,258.75
2019-05-13T10:01:12.392Z,275.63
2019-05-13T10:02:12.497Z,292.50
2019-05-13T10:03:13.480Z,315.00
2019-05-13T10:04:12.071Z,500.63
2019-05-13T10:05:12.122Z,405.00
2019-05-13T10:06:12.848Z,410.63
2019-05-13T10:07:12.996Z,427.50
2019-05-13T10:08:13.442Z,4246.88
2019-05-13T10:09:13.870Z,4291.88
2019-05-13T10:10:14.303Z,4404.38
2019-05-13T10:11:14.738Z,4365.00
2019-05-13T10:12:15.179Z,4252.50
2019-05-13T10:13:15.862Z,4275.00
2019-05-13T10:14:16.066Z,753.75
2019-05-13T10:15:16.508Z,691.88
2019-05-13T10:16:16.949Z,613.13
2019-05-13T10:17:17.398Z,495.00
2019-05-13T10:18:17.843Z,421.88
2019-05-13T10:19:18.287Z,343.13
2019-05-13T10:20:18.736Z,281.25
2019-05-13T10:21:21.657Z,236.25
2019-05-13T10:22:21.882Z,219.38
2019-05-13T10:23:22.014Z,213.75
2019-05-13T10:24:22.224Z,208.13
2019-05-13T10:25:22.401Z,219.38
2019-05-13T10:26:22.630Z,253.13
2019-05-13T10:27:22.528Z,281.25
2019-05-13T10:28:22.282Z,331.88
2019-05-13T10:29:22.766Z,360.00
2019-05-13T10:30:23.167Z,472.50
2019-05-13T10:31:23.598Z,748.13
2019-05-13T10:32:24.060Z,832.50
2019-05-13T10:33:24.481Z,2143.13
2019-05-13T10:34:24.919Z,1299.38
2019-05-13T10:35:25.364Z,4038.75
2019-05-13T10:36:25.801Z,4055.63
2019-05-13T10:37:26.249Z,3875.63
2019-05-13T10:38:27.845Z,3633.75
2019-05-13T10:39:27.136Z,3650.63
2019-05-13T10:40:27.589Z,3791.25
2019-05-13T10:41:28.026Z,3881.25
2019-05-13T10:42:28.486Z,916.88
2019-05-13T10:43:31.629Z,410.63
2019-05-13T10:44:29.381Z,360.00
2019-05-13T10:45:32.438Z,331.88
2019-05-13T10:46:32.072Z,343.13
2019-05-13T10:47:30.743Z,376.88
2019-05-13T10:48:31.186Z,461.25
2019-05-13T10:49:33.168Z,450.00
2019-05-13T10:50:32.182Z,466.88
2019-05-13T10:51:32.816Z,517.50
2019-05-13T10:52:32.990Z,579.38
2019-05-13T10:53:33.430Z,630.00
2019-05-13T10:54:33.872Z,635.63
2019-05-13T10:55:34.318Z,613.13
2019-05-13T10:56:34.766Z,720.00
2019-05-13T10:57:35.225Z,3493.13
2019-05-13T10:58:35.653Z,3976.88
2019-05-13T10:59:36.103Z,3870.00
2019-05-13T11:00:36.542Z,3273.75
2019-05-13T11:01:36.991Z,3740.63
2019-05-13T11:02:37.436Z,1136.25
2019-05-13T11:03:37.885Z,2863.13
2019-05-13T11:04:38.336Z,3082.50
2019-05-13T11:05:42.120Z,3256.88
2019-05-13T11:06:39.294Z,3498.75
2019-05-13T11:07:41.631Z,838.13
2019-05-13T11:08:42.248Z,736.88
2019-05-13T11:09:41.860Z,466.88
2019-05-13T11:10:42.093Z,405.00
2019-05-13T11:11:41.576Z,354.38
2019-05-13T11:12:41.991Z,320.63
2019-05-13T11:13:56.342Z,298.13
2019-05-13T11:14:46.751Z,315.00
2019-05-13T11:15:45.382Z,371.25
2019-05-13T11:16:43.758Z,416.25
2019-05-13T11:17:44.219Z,427.50
2019-05-13T11:18:44.652Z,438.75
2019-05-13T11:19:45.097Z,461.25
2019-05-13T11:20:45.544Z,495.00
2019-05-13T11:21:50.626Z,562.50
2019-05-13T11:22:46.434Z,3898.13
2019-05-13T11:23:46.883Z,4156.88
2019-05-13T11:24:47.321Z,1648.13
2019-05-13T11:25:47.767Z,956.25
2019-05-13T11:26:48.218Z,3706.88
2019-05-13T11:27:48.656Z,1906.88
2019-05-13T11:28:51.912Z,2885.63
2019-05-13T11:29:52.245Z,4072.50
2019-05-13T11:30:52.061Z,4038.75
2019-05-13T11:31:52.423Z,1102.50
2019-05-13T11:32:51.668Z,776.25
2019-05-13T11:33:52.211Z,731.25
2019-05-13T11:34:52.992Z,630.00
2019-05-13T11:35:52.560Z,607.50
2019-05-13T11:36:53.553Z,568.13
2019-05-13T11:37:53.237Z,545.63
2019-05-13T11:38:53.603Z,511.88
2019-05-13T11:39:54.049Z,472.50
2019-05-13T11:40:54.492Z,444.38
2019-05-13T11:41:54.939Z,421.88
2019-05-13T11:42:55.383Z,416.25
2019-05-13T11:44:12.215Z,433.13
2019-05-13T11:44:56.274Z,427.50
2019-05-13T11:45:56.730Z,444.38
2019-05-13T11:46:57.174Z,455.63
2019-05-13T11:47:57.603Z,438.75
2019-05-13T11:48:58.062Z,399.38
2019-05-13T11:49:58.500Z,371.25
2019-05-13T11:50:58.944Z,348.75
2019-05-13T11:51:59.381Z,331.88
2019-05-13T11:53:02.924Z,326.25
2019-05-13T11:54:02.415Z,315.00
2019-05-13T11:55:02.509Z,315.00
2019-05-13T11:56:03.529Z,309.38
2019-05-13T11:58:02.932Z,315.00
2019-05-13T11:59:04.394Z,320.63
2019-05-13T12:00:02.989Z,331.88
2019-05-13T12:01:03.391Z,331.88
2019-05-13T12:02:04.800Z,331.88
2019-05-13T12:03:04.361Z,348.75
2019-05-13T12:04:04.646Z,382.50
2019-05-13T12:05:05.088Z,393.75
2019-05-13T12:06:05.527Z,393.75
2019-05-13T12:07:05.963Z,416.25
2019-05-13T12:08:06.392Z,399.38
2019-05-13T12:09:06.838Z,427.50
2019-05-13T12:10:07.271Z,421.88
2019-05-13T12:11:07.708Z,444.38
2019-05-13T12:12:08.150Z,489.38
2019-05-13T12:13:08.588Z,500.63
2019-05-13T12:14:34.707Z,461.25
2019-05-13T12:15:27.153Z,433.13
2019-05-13T12:16:12.230Z,405.00
2019-05-13T12:17:13.895Z,405.00
2019-05-13T12:18:12.598Z,399.38
2019-05-13T12:19:11.953Z,388.13
2019-05-13T12:20:12.271Z,399.38
2019-05-13T12:21:12.437Z,388.13
2019-05-13T12:22:13.263Z,388.13
2019-05-13T12:23:13.222Z,360.00
2019-05-13T12:24:13.395Z,331.88
2019-05-13T12:25:14.229Z,320.63
2019-05-13T12:26:14.321Z,309.38
2019-05-13T12:27:14.707Z,303.75
2019-05-13T12:28:15.143Z,292.50
2019-05-13T12:29:19.155Z,298.13
2019-05-13T12:30:16.019Z,303.75
2019-05-13T12:31:16.461Z,315.00
2019-05-13T12:32:16.895Z,371.25
2019-05-13T12:33:17.352Z,393.75
2019-05-13T12:34:17.779Z,421.88
2019-05-13T12:35:18.207Z,450.00
2019-05-13T12:36:18.989Z,472.50
2019-05-13T12:37:21.996Z,455.63
2019-05-13T12:38:21.988Z,444.38
2019-05-13T12:39:23.561Z,461.25
2019-05-13T12:40:22.797Z,478.13
2019-05-13T12:41:23.115Z,483.75
2019-05-13T12:42:22.666Z,495.00
2019-05-13T12:43:24.114Z,472.50
2019-05-13T12:44:22.997Z,405.00
2019-05-13T12:45:22.609Z,376.88
2019-05-13T12:46:24.708Z,354.38
2019-05-13T12:47:23.455Z,331.88
2019-05-13T12:48:23.897Z,315.00